sensor_id;sensor_type;location;lat;lon;timestamp;temperature;humidity
35692;DHT22;26978;44.830;-0.674;2022-09-24T00:00:45;13.00;99.90
35692;DHT22;26978;44.830;-0.674;2022-09-24T00:03:20;13.00;99.90
35692;DHT22;26978;44.830;-0.674;2022-09-24T00:05:46;12.90;99.90
35692;DHT22;26978;44.830;-0.674;2022-09-24T00:08:13;12.90;99.90
35692;DHT22;26978;44.830;-0.674;2022-09-24T00:10:40;12.90;99.90
35692;DHT22;26978;44.830;-0.674;2022-09-24T00:13:06;12.70;99.90
35692;DHT22;26978;44.830;-0.674;2022-09-24T00:15:36;12.60;99.90
35692;DHT22;26978;44.830;-0.674;2022-09-24T00:18:02;12.60;99.90
35692;DHT22;26978;44.830;-0.674;2022-09-24T00:20:29;12.50;99.90
35692;DHT22;26978;44.830;-0.674;2022-09-24T00:22:54;12.50;99.90
35692;DHT22;26978;44.830;-0.674;2022-09-24T00:25:20;12.50;99.90
35692;DHT22;26978;44.830;-0.674;2022-09-24T00:28:04;12.60;99.90
35692;DHT22;26978;44.830;-0.674;2022-09-24T00:30:29;12.60;99.90
35692;DHT22;26978;44.830;-0.674;2022-09-24T00:32:55;12.60;99.90
35692;DHT22;26978;44.830;-0.674;2022-09-24T00:35:20;12.50;99.90
35692;DHT22;26978;44.830;-0.674;2022-09-24T00:37:46;12.60;99.90
35692;DHT22;26978;44.830;-0.674;2022-09-24T00:40:11;12.70;99.90
35692;DHT22;26978;44.830;-0.674;2022-09-24T00:42:38;12.70;99.90
35692;DHT22;26978;44.830;-0.674;2022-09-24T00:45:03;12.60;99.90
35692;DHT22;26978;44.830;-0.674;2022-09-24T00:47:34;12.60;99.90
35692;DHT22;26978;44.830;-0.674;2022-09-24T00:50:12;12.50;99.90
35692;DHT22;26978;44.830;-0.674;2022-09-24T00:55:24;12.60;99.90
35692;DHT22;26978;44.830;-0.674;2022-09-24T00:57:51;12.60;99.90
35692;DHT22;26978;44.830;-0.674;2022-09-24T01:00:19;12.60;99.90
35692;DHT22;26978;44.830;-0.674;2022-09-24T01:02:45;12.80;99.90
35692;DHT22;26978;44.830;-0.674;2022-09-24T01:05:11;12.80;99.90
35692;DHT22;26978;44.830;-0.674;2022-09-24T01:07:37;12.60;99.90
35692;DHT22;26978;44.830;-0.674;2022-09-24T01:10:02;12.50;99.90
35692;DHT22;26978;44.830;-0.674;2022-09-24T01:12:31;12.50;99.90
35692;DHT22;26978;44.830;-0.674;2022-09-24T01:29:52;12.30;99.90
35692;DHT22;26978;44.830;-0.674;2022-09-24T01:32:27;12.30;99.90
35692;DHT22;26978;44.830;-0.674;2022-09-24T01:34:57;12.20;99.90
35692;DHT22;26978;44.830;-0.674;2022-09-24T01:37:24;12.10;99.90
35692;DHT22;26978;44.830;-0.674;2022-09-24T01:39:51;12.10;99.90
35692;DHT22;26978;44.830;-0.674;2022-09-24T01:42:18;12.00;99.90
35692;DHT22;26978;44.830;-0.674;2022-09-24T01:44:44;12.10;99.90
35692;DHT22;26978;44.830;-0.674;2022-09-24T01:47:22;12.10;99.90
35692;DHT22;26978;44.830;-0.674;2022-09-24T01:49:50;12.30;99.90
35692;DHT22;26978;44.830;-0.674;2022-09-24T01:52:19;12.60;99.90
35692;DHT22;26978;44.830;-0.674;2022-09-24T01:54:45;12.60;99.90
35692;DHT22;26978;44.830;-0.674;2022-09-24T02:02:15;12.60;99.90
35692;DHT22;26978;44.830;-0.674;2022-09-24T02:04:43;12.60;99.90
35692;DHT22;26978;44.830;-0.674;2022-09-24T02:07:10;12.50;99.90
35692;DHT22;26978;44.830;-0.674;2022-09-24T02:09:39;12.40;99.90
35692;DHT22;26978;44.830;-0.674;2022-09-24T02:14:39;12.20;99.90
35692;DHT22;26978;44.830;-0.674;2022-09-24T02:17:05;12.20;99.90
35692;DHT22;26978;44.830;-0.674;2022-09-24T02:19:31;12.10;99.90
35692;DHT22;26978;44.830;-0.674;2022-09-24T02:21:59;12.00;99.90
35692;DHT22;26978;44.830;-0.674;2022-09-24T02:24:29;11.90;99.90
35692;DHT22;26978;44.830;-0.674;2022-09-24T02:26:56;12.00;99.90
35692;DHT22;26978;44.830;-0.674;2022-09-24T02:29:22;12.00;99.90
35692;DHT22;26978;44.830;-0.674;2022-09-24T02:31:48;11.90;99.90
35692;DHT22;26978;44.830;-0.674;2022-09-24T02:34:18;11.80;99.90
35692;DHT22;26978;44.830;-0.674;2022-09-24T02:36:51;11.80;99.90
35692;DHT22;26978;44.830;-0.674;2022-09-24T02:39:17;11.70;99.90
35692;DHT22;26978;44.830;-0.674;2022-09-24T02:41:46;11.80;99.90
35692;DHT22;26978;44.830;-0.674;2022-09-24T02:44:13;11.70;99.90
35692;DHT22;26978;44.830;-0.674;2022-09-24T02:46:39;11.70;99.90
35692;DHT22;26978;44.830;-0.674;2022-09-24T02:49:06;11.60;99.90
35692;DHT22;26978;44.830;-0.674;2022-09-24T02:51:31;11.60;99.90
35692;DHT22;26978;44.830;-0.674;2022-09-24T02:53:57;11.60;99.90
35692;DHT22;26978;44.830;-0.674;2022-09-24T02:56:22;11.60;99.90
35692;DHT22;26978;44.830;-0.674;2022-09-24T02:58:48;11.60;99.90
35692;DHT22;26978;44.830;-0.674;2022-09-24T03:01:13;11.60;99.90
35692;DHT22;26978;44.830;-0.674;2022-09-24T03:03:39;11.60;99.90
35692;DHT22;26978;44.830;-0.674;2022-09-24T03:06:05;11.70;99.90
35692;DHT22;26978;44.830;-0.674;2022-09-24T03:08:30;11.70;99.90
35692;DHT22;26978;44.830;-0.674;2022-09-24T03:10:57;11.80;99.90
35692;DHT22;26978;44.830;-0.674;2022-09-24T03:13:23;11.90;99.90
35692;DHT22;26978;44.830;-0.674;2022-09-24T03:15:48;12.00;99.90
35692;DHT22;26978;44.830;-0.674;2022-09-24T03:18:14;12.10;99.90
35692;DHT22;26978;44.830;-0.674;2022-09-24T03:20:39;12.30;99.90
35692;DHT22;26978;44.830;-0.674;2022-09-24T03:23:05;12.30;99.90
35692;DHT22;26978;44.830;-0.674;2022-09-24T03:25:31;12.30;99.90
35692;DHT22;26978;44.830;-0.674;2022-09-24T03:27:56;12.30;99.90
35692;DHT22;26978;44.830;-0.674;2022-09-24T03:30:22;12.20;99.90
35692;DHT22;26978;44.830;-0.674;2022-09-24T03:33:06;12.10;99.90
35692;DHT22;26978;44.830;-0.674;2022-09-24T03:35:32;12.00;99.90
35692;DHT22;26978;44.830;-0.674;2022-09-24T03:37:57;12.00;99.90
35692;DHT22;26978;44.830;-0.674;2022-09-24T03:40:23;12.00;99.90
35692;DHT22;26978;44.830;-0.674;2022-09-24T03:42:49;12.00;99.90
35692;DHT22;26978;44.830;-0.674;2022-09-24T03:45:15;12.00;99.90
35692;DHT22;26978;44.830;-0.674;2022-09-24T03:47:40;11.90;99.90
35692;DHT22;26978;44.830;-0.674;2022-09-24T03:50:07;11.90;99.90
35692;DHT22;26978;44.830;-0.674;2022-09-24T03:52:37;11.90;99.90
35692;DHT22;26978;44.830;-0.674;2022-09-24T03:55:02;12.00;99.90
35692;DHT22;26978;44.830;-0.674;2022-09-24T03:57:28;12.00;99.90
35692;DHT22;26978;44.830;-0.674;2022-09-24T03:59:53;12.00;99.90
35692;DHT22;26978;44.830;-0.674;2022-09-24T04:02:21;11.90;99.90
35692;DHT22;26978;44.830;-0.674;2022-09-24T04:04:46;11.90;99.90
35692;DHT22;26978;44.830;-0.674;2022-09-24T04:07:12;11.80;99.90
35692;DHT22;26978;44.830;-0.674;2022-09-24T04:09:38;11.80;99.90
35692;DHT22;26978;44.830;-0.674;2022-09-24T04:12:03;11.80;99.90
35692;DHT22;26978;44.830;-0.674;2022-09-24T04:14:30;11.80;99.90
35692;DHT22;26978;44.830;-0.674;2022-09-24T04:16:56;11.80;99.90
35692;DHT22;26978;44.830;-0.674;2022-09-24T04:19:23;11.80;99.90
35692;DHT22;26978;44.830;-0.674;2022-09-24T04:21:48;11.80;99.90
35692;DHT22;26978;44.830;-0.674;2022-09-24T04:24:14;11.90;99.90
35692;DHT22;26978;44.830;-0.674;2022-09-24T04:26:39;12.00;99.90
35692;DHT22;26978;44.830;-0.674;2022-09-24T04:29:05;11.90;99.90
35692;DHT22;26978;44.830;-0.674;2022-09-24T04:31:30;11.80;99.90
35692;DHT22;26978;44.830;-0.674;2022-09-24T04:33:57;11.70;99.90
35692;DHT22;26978;44.830;-0.674;2022-09-24T04:36:23;11.60;99.90
35692;DHT22;26978;44.830;-0.674;2022-09-24T04:38:48;11.60;99.90
35692;DHT22;26978;44.830;-0.674;2022-09-24T04:41:14;11.70;99.90
35692;DHT22;26978;44.830;-0.674;2022-09-24T04:43:42;11.70;99.90
35692;DHT22;26978;44.830;-0.674;2022-09-24T04:46:11;11.70;99.90
35692;DHT22;26978;44.830;-0.674;2022-09-24T04:48:37;11.60;99.90
35692;DHT22;26978;44.830;-0.674;2022-09-24T04:51:06;11.70;99.90
35692;DHT22;26978;44.830;-0.674;2022-09-24T04:53:32;11.80;99.90
35692;DHT22;26978;44.830;-0.674;2022-09-24T04:55:58;11.80;99.90
35692;DHT22;26978;44.830;-0.674;2022-09-24T04:58:24;11.80;99.90
35692;DHT22;26978;44.830;-0.674;2022-09-24T05:00:50;11.90;99.90
35692;DHT22;26978;44.830;-0.674;2022-09-24T05:03:15;11.90;99.90
35692;DHT22;26978;44.830;-0.674;2022-09-24T05:05:41;11.90;99.90
35692;DHT22;26978;44.830;-0.674;2022-09-24T05:08:06;11.90;99.90
35692;DHT22;26978;44.830;-0.674;2022-09-24T05:10:32;11.80;99.90
35692;DHT22;26978;44.830;-0.674;2022-09-24T05:12:58;11.70;99.90
35692;DHT22;26978;44.830;-0.674;2022-09-24T05:15:24;11.70;99.90
35692;DHT22;26978;44.830;-0.674;2022-09-24T05:17:50;11.60;99.90
35692;DHT22;26978;44.830;-0.674;2022-09-24T05:20:15;11.70;99.90
35692;DHT22;26978;44.830;-0.674;2022-09-24T05:22:42;11.70;99.90
35692;DHT22;26978;44.830;-0.674;2022-09-24T05:25:07;11.70;99.90
35692;DHT22;26978;44.830;-0.674;2022-09-24T05:27:33;11.70;99.90
35692;DHT22;26978;44.830;-0.674;2022-09-24T05:30:00;11.80;99.90
35692;DHT22;26978;44.830;-0.674;2022-09-24T05:32:25;11.80;99.90
35692;DHT22;26978;44.830;-0.674;2022-09-24T05:34:51;11.80;99.90
35692;DHT22;26978;44.830;-0.674;2022-09-24T05:37:17;11.70;99.90
35692;DHT22;26978;44.830;-0.674;2022-09-24T05:39:43;11.60;99.90
35692;DHT22;26978;44.830;-0.674;2022-09-24T05:42:11;11.60;99.90
35692;DHT22;26978;44.830;-0.674;2022-09-24T05:44:40;11.60;99.90
35692;DHT22;26978;44.830;-0.674;2022-09-24T05:47:07;11.60;99.90
35692;DHT22;26978;44.830;-0.674;2022-09-24T05:49:33;11.70;99.90
35692;DHT22;26978;44.830;-0.674;2022-09-24T05:51:59;11.80;99.90
35692;DHT22;26978;44.830;-0.674;2022-09-24T05:54:25;12.00;99.90
35692;DHT22;26978;44.830;-0.674;2022-09-24T05:56:51;12.10;99.90
35692;DHT22;26978;44.830;-0.674;2022-09-24T05:59:17;12.20;99.90
35692;DHT22;26978;44.830;-0.674;2022-09-24T06:01:42;12.20;99.90
35692;DHT22;26978;44.830;-0.674;2022-09-24T06:04:09;12.10;99.90
35692;DHT22;26978;44.830;-0.674;2022-09-24T06:06:35;12.00;99.90
35692;DHT22;26978;44.830;-0.674;2022-09-24T06:09:01;12.00;99.90
35692;DHT22;26978;44.830;-0.674;2022-09-24T06:11:27;11.90;99.90
35692;DHT22;26978;44.830;-0.674;2022-09-24T06:13:53;11.80;99.90
35692;DHT22;26978;44.830;-0.674;2022-09-24T06:16:19;11.80;99.90
35692;DHT22;26978;44.830;-0.674;2022-09-24T06:18:44;11.80;99.90
35692;DHT22;26978;44.830;-0.674;2022-09-24T06:21:11;11.80;99.90
35692;DHT22;26978;44.830;-0.674;2022-09-24T06:23:37;11.80;99.90
35692;DHT22;26978;44.830;-0.674;2022-09-24T06:26:03;11.80;99.90
35692;DHT22;26978;44.830;-0.674;2022-09-24T06:28:29;11.80;99.90
35692;DHT22;26978;44.830;-0.674;2022-09-24T06:30:58;11.80;99.90
35692;DHT22;26978;44.830;-0.674;2022-09-24T06:33:24;11.80;99.90
35692;DHT22;26978;44.830;-0.674;2022-09-24T06:35:49;11.80;99.90
35692;DHT22;26978;44.830;-0.674;2022-09-24T06:38:15;11.80;99.90
35692;DHT22;26978;44.830;-0.674;2022-09-24T06:40:42;11.80;99.90
35692;DHT22;26978;44.830;-0.674;2022-09-24T06:43:09;11.90;99.90
35692;DHT22;26978;44.830;-0.674;2022-09-24T06:45:35;11.90;99.90
35692;DHT22;26978;44.830;-0.674;2022-09-24T06:48:02;12.00;99.90
35692;DHT22;26978;44.830;-0.674;2022-09-24T06:50:29;12.10;99.90
35692;DHT22;26978;44.830;-0.674;2022-09-24T06:52:55;12.20;99.90
35692;DHT22;26978;44.830;-0.674;2022-09-24T06:55:21;12.30;99.90
35692;DHT22;26978;44.830;-0.674;2022-09-24T06:57:46;12.30;99.90
35692;DHT22;26978;44.830;-0.674;2022-09-24T07:00:13;12.40;99.90
35692;DHT22;26978;44.830;-0.674;2022-09-24T07:02:38;12.50;99.90
35692;DHT22;26978;44.830;-0.674;2022-09-24T07:05:04;12.60;99.90
35692;DHT22;26978;44.830;-0.674;2022-09-24T07:07:30;12.70;99.90
35692;DHT22;26978;44.830;-0.674;2022-09-24T07:10:00;12.80;99.90
35692;DHT22;26978;44.830;-0.674;2022-09-24T07:12:28;12.80;99.90
35692;DHT22;26978;44.830;-0.674;2022-09-24T07:14:55;12.90;99.90
35692;DHT22;26978;44.830;-0.674;2022-09-24T07:17:20;13.10;99.90
35692;DHT22;26978;44.830;-0.674;2022-09-24T07:19:46;13.20;99.90
35692;DHT22;26978;44.830;-0.674;2022-09-24T07:22:11;13.30;99.90
35692;DHT22;26978;44.830;-0.674;2022-09-24T07:24:37;13.40;99.90
35692;DHT22;26978;44.830;-0.674;2022-09-24T07:27:03;13.50;99.90
35692;DHT22;26978;44.830;-0.674;2022-09-24T07:29:29;13.60;99.90
35692;DHT22;26978;44.830;-0.674;2022-09-24T07:31:54;13.80;99.90
35692;DHT22;26978;44.830;-0.674;2022-09-24T07:34:20;13.90;99.90
35692;DHT22;26978;44.830;-0.674;2022-09-24T07:36:45;13.90;99.90
35692;DHT22;26978;44.830;-0.674;2022-09-24T07:39:11;14.00;99.90
35692;DHT22;26978;44.830;-0.674;2022-09-24T07:41:36;14.10;99.90
35692;DHT22;26978;44.830;-0.674;2022-09-24T07:44:05;14.30;99.90
35692;DHT22;26978;44.830;-0.674;2022-09-24T07:46:32;14.40;99.90
35692;DHT22;26978;44.830;-0.674;2022-09-24T07:48:57;14.50;99.90
35692;DHT22;26978;44.830;-0.674;2022-09-24T07:51:23;14.60;99.90
35692;DHT22;26978;44.830;-0.674;2022-09-24T07:53:50;14.70;99.90
35692;DHT22;26978;44.830;-0.674;2022-09-24T07:56:15;14.70;99.90
35692;DHT22;26978;44.830;-0.674;2022-09-24T07:58:42;14.70;99.90
35692;DHT22;26978;44.830;-0.674;2022-09-24T08:01:07;14.70;99.90
35692;DHT22;26978;44.830;-0.674;2022-09-24T08:03:33;14.70;99.90
35692;DHT22;26978;44.830;-0.674;2022-09-24T08:05:58;14.80;99.90
35692;DHT22;26978;44.830;-0.674;2022-09-24T08:08:26;14.70;99.90
35692;DHT22;26978;44.830;-0.674;2022-09-24T08:10:51;14.70;99.90
35692;DHT22;26978;44.830;-0.674;2022-09-24T08:13:17;14.70;99.90
35692;DHT22;26978;44.830;-0.674;2022-09-24T08:15:43;14.80;99.90
35692;DHT22;26978;44.830;-0.674;2022-09-24T08:18:08;14.80;99.90
35692;DHT22;26978;44.830;-0.674;2022-09-24T08:20:35;14.90;99.90
35692;DHT22;26978;44.830;-0.674;2022-09-24T08:23:01;15.00;99.90
35692;DHT22;26978;44.830;-0.674;2022-09-24T08:25:27;15.00;99.90
35692;DHT22;26978;44.830;-0.674;2022-09-24T08:27:52;15.20;99.90
35692;DHT22;26978;44.830;-0.674;2022-09-24T08:30:18;15.50;99.90
35692;DHT22;26978;44.830;-0.674;2022-09-24T08:32:47;15.80;99.90
35692;DHT22;26978;44.830;-0.674;2022-09-24T08:35:13;16.00;99.90
35692;DHT22;26978;44.830;-0.674;2022-09-24T08:37:40;16.30;99.90
35692;DHT22;26978;44.830;-0.674;2022-09-24T08:40:06;16.50;99.90
35692;DHT22;26978;44.830;-0.674;2022-09-24T08:45:10;16.90;99.90
35692;DHT22;26978;44.830;-0.674;2022-09-24T08:47:56;17.20;99.90
35692;DHT22;26978;44.830;-0.674;2022-09-24T08:50:25;17.40;99.90
35692;DHT22;26978;44.830;-0.674;2022-09-24T08:52:56;17.60;99.90
35692;DHT22;26978;44.830;-0.674;2022-09-24T08:55:26;17.80;99.90
35692;DHT22;26978;44.830;-0.674;2022-09-24T09:00:29;17.70;99.90
35692;DHT22;26978;44.830;-0.674;2022-09-24T09:03:42;17.80;99.90
35692;DHT22;26978;44.830;-0.674;2022-09-24T09:05:44;18.10;99.90
35692;DHT22;26978;44.830;-0.674;2022-09-24T09:10:52;18.50;99.90
35692;DHT22;26978;44.830;-0.674;2022-09-24T09:13:30;18.70;99.90
35692;DHT22;26978;44.830;-0.674;2022-09-24T09:18:41;18.40;99.90
35692;DHT22;26978;44.830;-0.674;2022-09-24T09:23:38;18.50;99.90
35692;DHT22;26978;44.830;-0.674;2022-09-24T09:26:09;18.40;99.90
35692;DHT22;26978;44.830;-0.674;2022-09-24T09:28:35;18.30;99.90
35692;DHT22;26978;44.830;-0.674;2022-09-24T09:31:14;18.40;99.90
35692;DHT22;26978;44.830;-0.674;2022-09-24T09:38:59;18.80;99.90
35692;DHT22;26978;44.830;-0.674;2022-09-24T09:41:46;18.90;99.90
35692;DHT22;26978;44.830;-0.674;2022-09-24T09:44:21;18.90;99.90
35692;DHT22;26978;44.830;-0.674;2022-09-24T09:46:50;18.90;99.90
35692;DHT22;26978;44.830;-0.674;2022-09-24T09:49:17;19.00;99.90
35692;DHT22;26978;44.830;-0.674;2022-09-24T09:51:43;19.10;99.90
35692;DHT22;26978;44.830;-0.674;2022-09-24T09:54:10;19.10;99.90
35692;DHT22;26978;44.830;-0.674;2022-09-24T09:56:37;19.40;99.90
35692;DHT22;26978;44.830;-0.674;2022-09-24T09:59:07;19.50;99.90
35692;DHT22;26978;44.830;-0.674;2022-09-24T10:01:40;19.80;99.90
35692;DHT22;26978;44.830;-0.674;2022-09-24T10:04:19;20.10;99.90
35692;DHT22;26978;44.830;-0.674;2022-09-24T10:06:47;20.30;99.90
35692;DHT22;26978;44.830;-0.674;2022-09-24T10:09:19;20.40;99.90
35692;DHT22;26978;44.830;-0.674;2022-09-24T10:11:45;20.30;99.90
35692;DHT22;26978;44.830;-0.674;2022-09-24T10:14:11;20.60;99.90
35692;DHT22;26978;44.830;-0.674;2022-09-24T10:16:42;20.50;99.90
35692;DHT22;26978;44.830;-0.674;2022-09-24T10:21:39;20.80;99.90
35692;DHT22;26978;44.830;-0.674;2022-09-24T10:24:06;21.10;99.30
35692;DHT22;26978;44.830;-0.674;2022-09-24T10:26:36;20.60;98.10
35692;DHT22;26978;44.830;-0.674;2022-09-24T10:29:02;20.50;97.80
35692;DHT22;26978;44.830;-0.674;2022-09-24T10:31:46;20.20;99.50
35692;DHT22;26978;44.830;-0.674;2022-09-24T10:34:18;20.00;99.90
35692;DHT22;26978;44.830;-0.674;2022-09-24T10:36:52;19.80;99.90
35692;DHT22;26978;44.830;-0.674;2022-09-24T10:39:22;19.50;99.90
35692;DHT22;26978;44.830;-0.674;2022-09-24T10:41:51;19.20;99.90
35692;DHT22;26978;44.830;-0.674;2022-09-24T10:44:17;19.10;99.90
35692;DHT22;26978;44.830;-0.674;2022-09-24T10:52:08;19.20;99.90
35692;DHT22;26978;44.830;-0.674;2022-09-24T10:54:51;19.60;99.90
35692;DHT22;26978;44.830;-0.674;2022-09-24T11:04:58;21.20;99.80
35692;DHT22;26978;44.830;-0.674;2022-09-24T11:10:00;21.90;98.80
35692;DHT22;26978;44.830;-0.674;2022-09-24T11:12:37;21.90;96.60
35692;DHT22;26978;44.830;-0.674;2022-09-24T11:15:15;21.70;94.60
35692;DHT22;26978;44.830;-0.674;2022-09-24T11:22:50;20.70;94.50
35692;DHT22;26978;44.830;-0.674;2022-09-24T11:25:25;20.40;93.90
35692;DHT22;26978;44.830;-0.674;2022-09-24T11:45:30;22.00;89.40
35692;DHT22;26978;44.830;-0.674;2022-09-24T11:53:28;22.10;90.70
35692;DHT22;26978;44.830;-0.674;2022-09-24T11:56:19;22.50;85.60
35692;DHT22;26978;44.830;-0.674;2022-09-24T11:58:44;21.90;88.00
35692;DHT22;26978;44.830;-0.674;2022-09-24T12:01:55;22.50;86.60
35692;DHT22;26978;44.830;-0.674;2022-09-24T12:06:37;21.90;84.90
35692;DHT22;26978;44.830;-0.674;2022-09-24T12:11:35;21.50;84.10
35692;DHT22;26978;44.830;-0.674;2022-09-24T12:14:10;21.40;84.30
35692;DHT22;26978;44.830;-0.674;2022-09-24T12:16:37;21.20;84.70
35692;DHT22;26978;44.830;-0.674;2022-09-24T12:21:38;21.40;86.70
35692;DHT22;26978;44.830;-0.674;2022-09-24T12:24:10;21.60;86.80
35692;DHT22;26978;44.830;-0.674;2022-09-24T12:26:37;22.10;84.00
35692;DHT22;26978;44.830;-0.674;2022-09-24T12:31:59;23.20;76.20
35692;DHT22;26978;44.830;-0.674;2022-09-24T12:37:19;22.10;79.40
35692;DHT22;26978;44.830;-0.674;2022-09-24T12:39:53;21.70;80.90
35692;DHT22;26978;44.830;-0.674;2022-09-24T12:42:22;21.60;80.10
35692;DHT22;26978;44.830;-0.674;2022-09-24T12:44:50;22.30;77.00
35692;DHT22;26978;44.830;-0.674;2022-09-24T12:47:27;22.70;75.50
35692;DHT22;26978;44.830;-0.674;2022-09-24T12:49:56;22.60;74.40
35692;DHT22;26978;44.830;-0.674;2022-09-24T12:52:27;22.90;75.70
35692;DHT22;26978;44.830;-0.674;2022-09-24T12:54:57;23.20;75.20
35692;DHT22;26978;44.830;-0.674;2022-09-24T12:57:24;23.00;76.50
35692;DHT22;26978;44.830;-0.674;2022-09-24T12:59:55;23.10;76.10
35692;DHT22;26978;44.830;-0.674;2022-09-24T13:02:21;23.20;71.10
35692;DHT22;26978;44.830;-0.674;2022-09-24T13:07:27;24.00;69.50
35692;DHT22;26978;44.830;-0.674;2022-09-24T13:09:52;24.30;65.40
35692;DHT22;26978;44.830;-0.674;2022-09-24T13:12:19;24.80;62.00
35692;DHT22;26978;44.830;-0.674;2022-09-24T13:15:07;24.80;65.90
35692;DHT22;26978;44.830;-0.674;2022-09-24T13:17:33;24.40;63.20
35692;DHT22;26978;44.830;-0.674;2022-09-24T13:20:02;23.20;70.40
35692;DHT22;26978;44.830;-0.674;2022-09-24T13:22:33;22.50;73.20
35692;DHT22;26978;44.830;-0.674;2022-09-24T13:27:35;22.60;75.30
35692;DHT22;26978;44.830;-0.674;2022-09-24T13:32:58;22.30;75.30
35692;DHT22;26978;44.830;-0.674;2022-09-24T13:35:27;22.20;75.60
35692;DHT22;26978;44.830;-0.674;2022-09-24T13:38:15;21.90;77.50
35692;DHT22;26978;44.830;-0.674;2022-09-24T13:40:43;21.60;79.50
35692;DHT22;26978;44.830;-0.674;2022-09-24T13:43:21;21.40;80.20
35692;DHT22;26978;44.830;-0.674;2022-09-24T13:45:51;22.10;78.40
35692;DHT22;26978;44.830;-0.674;2022-09-24T13:48:27;23.00;73.70
35692;DHT22;26978;44.830;-0.674;2022-09-24T13:50:53;23.80;71.00
35692;DHT22;26978;44.830;-0.674;2022-09-24T13:55:48;24.90;65.80
35692;DHT22;26978;44.830;-0.674;2022-09-24T13:58:31;24.20;66.60
35692;DHT22;26978;44.830;-0.674;2022-09-24T14:00:57;24.40;67.90
35692;DHT22;26978;44.830;-0.674;2022-09-24T14:03:25;23.40;70.90
35692;DHT22;26978;44.830;-0.674;2022-09-24T14:05:51;23.00;70.70
35692;DHT22;26978;44.830;-0.674;2022-09-24T14:08:17;22.50;69.10
35692;DHT22;26978;44.830;-0.674;2022-09-24T14:10:44;22.40;68.80
35692;DHT22;26978;44.830;-0.674;2022-09-24T14:18:17;21.80;72.60
35692;DHT22;26978;44.830;-0.674;2022-09-24T14:20:43;21.30;75.90
35692;DHT22;26978;44.830;-0.674;2022-09-24T14:23:13;21.20;77.30
35692;DHT22;26978;44.830;-0.674;2022-09-24T14:25:41;21.10;76.40
35692;DHT22;26978;44.830;-0.674;2022-09-24T14:28:08;21.00;76.00
35692;DHT22;26978;44.830;-0.674;2022-09-24T14:30:35;21.10;76.40
35692;DHT22;26978;44.830;-0.674;2022-09-24T14:33:10;21.20;75.40
35692;DHT22;26978;44.830;-0.674;2022-09-24T14:35:38;21.20;74.90
35692;DHT22;26978;44.830;-0.674;2022-09-24T14:38:18;21.50;73.90
35692;DHT22;26978;44.830;-0.674;2022-09-24T14:40:44;22.10;71.50
35692;DHT22;26978;44.830;-0.674;2022-09-24T14:43:16;21.70;74.90
35692;DHT22;26978;44.830;-0.674;2022-09-24T14:45:43;21.30;73.70
35692;DHT22;26978;44.830;-0.674;2022-09-24T14:48:31;21.00;76.00
35692;DHT22;26978;44.830;-0.674;2022-09-24T14:50:55;20.90;75.30
35692;DHT22;26978;44.830;-0.674;2022-09-24T14:53:29;20.70;75.80
35692;DHT22;26978;44.830;-0.674;2022-09-24T14:55:55;21.10;73.90
35692;DHT22;26978;44.830;-0.674;2022-09-24T15:00:56;22.00;73.40
35692;DHT22;26978;44.830;-0.674;2022-09-24T15:06:00;21.60;74.20
35692;DHT22;26978;44.830;-0.674;2022-09-24T15:08:26;21.10;80.00
35692;DHT22;26978;44.830;-0.674;2022-09-24T15:11:35;20.90;77.30
35692;DHT22;26978;44.830;-0.674;2022-09-24T15:13:42;20.90;80.40
35692;DHT22;26978;44.830;-0.674;2022-09-24T15:16:18;20.80;78.80
35692;DHT22;26978;44.830;-0.674;2022-09-24T15:18:47;20.70;75.50
35692;DHT22;26978;44.830;-0.674;2022-09-24T15:21:17;20.90;77.00
35692;DHT22;26978;44.830;-0.674;2022-09-24T15:23:42;20.80;78.80
35692;DHT22;26978;44.830;-0.674;2022-09-24T15:26:08;20.70;80.60
35692;DHT22;26978;44.830;-0.674;2022-09-24T15:28:33;20.60;81.90
35692;DHT22;26978;44.830;-0.674;2022-09-24T15:30:59;20.60;82.10
35692;DHT22;26978;44.830;-0.674;2022-09-24T15:33:25;20.40;82.50
35692;DHT22;26978;44.830;-0.674;2022-09-24T15:35:50;20.30;82.90
35692;DHT22;26978;44.830;-0.674;2022-09-24T15:38:17;20.40;83.40
35692;DHT22;26978;44.830;-0.674;2022-09-24T15:40:43;20.50;83.80
35692;DHT22;26978;44.830;-0.674;2022-09-24T15:43:19;20.60;83.80
35692;DHT22;26978;44.830;-0.674;2022-09-24T15:45:45;20.80;83.20
35692;DHT22;26978;44.830;-0.674;2022-09-24T15:48:10;20.60;84.60
35692;DHT22;26978;44.830;-0.674;2022-09-24T15:50:37;20.40;86.20
35692;DHT22;26978;44.830;-0.674;2022-09-24T15:53:02;20.50;85.50
35692;DHT22;26978;44.830;-0.674;2022-09-24T15:55:28;20.80;85.50
35692;DHT22;26978;44.830;-0.674;2022-09-24T15:57:55;21.50;81.60
35692;DHT22;26978;44.830;-0.674;2022-09-24T16:00:21;21.40;78.60
35692;DHT22;26978;44.830;-0.674;2022-09-24T16:02:49;21.60;77.70
35692;DHT22;26978;44.830;-0.674;2022-09-24T16:05:15;21.70;75.70
35692;DHT22;26978;44.830;-0.674;2022-09-24T16:07:41;22.10;72.40
35692;DHT22;26978;44.830;-0.674;2022-09-24T16:10:07;22.60;72.30
35692;DHT22;26978;44.830;-0.674;2022-09-24T16:12:34;22.90;72.00
35692;DHT22;26978;44.830;-0.674;2022-09-24T16:14:59;22.50;73.00
35692;DHT22;26978;44.830;-0.674;2022-09-24T16:17:25;21.70;76.50
35692;DHT22;26978;44.830;-0.674;2022-09-24T16:19:51;20.90;79.70
35692;DHT22;26978;44.830;-0.674;2022-09-24T16:22:16;20.50;81.20
35692;DHT22;26978;44.830;-0.674;2022-09-24T16:24:42;20.20;82.70
35692;DHT22;26978;44.830;-0.674;2022-09-24T16:27:08;20.40;82.20
35692;DHT22;26978;44.830;-0.674;2022-09-24T16:29:33;21.80;80.40
35692;DHT22;26978;44.830;-0.674;2022-09-24T16:31:59;22.70;73.80
35692;DHT22;26978;44.830;-0.674;2022-09-24T16:34:26;23.10;72.70
35692;DHT22;26978;44.830;-0.674;2022-09-24T16:36:52;21.90;73.20
35692;DHT22;26978;44.830;-0.674;2022-09-24T16:39:17;21.50;77.70
35692;DHT22;26978;44.830;-0.674;2022-09-24T16:41:46;21.50;78.30
35692;DHT22;26978;44.830;-0.674;2022-09-24T16:44:11;22.20;77.90
35692;DHT22;26978;44.830;-0.674;2022-09-24T16:46:43;22.70;75.60
35692;DHT22;26978;44.830;-0.674;2022-09-24T16:49:09;21.20;79.50
35692;DHT22;26978;44.830;-0.674;2022-09-24T16:51:35;20.80;81.90
35692;DHT22;26978;44.830;-0.674;2022-09-24T16:54:01;20.60;84.30
35692;DHT22;26978;44.830;-0.674;2022-09-24T16:56:26;20.20;87.70
35692;DHT22;26978;44.830;-0.674;2022-09-24T16:58:53;19.80;89.70
35692;DHT22;26978;44.830;-0.674;2022-09-24T17:01:19;19.20;91.80
35692;DHT22;26978;44.830;-0.674;2022-09-24T17:03:54;19.00;92.70
35692;DHT22;26978;44.830;-0.674;2022-09-24T17:06:21;18.80;93.30
35692;DHT22;26978;44.830;-0.674;2022-09-24T17:08:47;18.60;94.40
35692;DHT22;26978;44.830;-0.674;2022-09-24T17:11:31;18.50;95.50
35692;DHT22;26978;44.830;-0.674;2022-09-24T17:13:56;18.40;96.10
35692;DHT22;26978;44.830;-0.674;2022-09-24T17:16:22;18.30;96.70
35692;DHT22;26978;44.830;-0.674;2022-09-24T17:18:49;18.30;97.00
35692;DHT22;26978;44.830;-0.674;2022-09-24T17:21:15;18.20;97.50
35692;DHT22;26978;44.830;-0.674;2022-09-24T17:23:42;18.10;98.10